Max, MN (56659)

11:16 PM CDT on April 28, 2017 (GMT -0500)
Williams Narrows Resort / Bobbers Bar | | Change Station

Elev 1306 ft 47.51 °N, 94.06 °W | Updated 34 seconds ago

Clear
Clear
34.3 °F
Feels Like 34 °F
N
0.0
Wind Variable Wind from ESE
Gusts 0.0 mph

Today
High -- | Low -- °F
--% Chance of Precip.
Yesterday
High -- | Low -- °F
Precip. -- in
Pressure 30.15 in
Visibility 10.0 miles
Clouds Clear
Windchill 34 °F
Dew Point 29 °F
Humidity 79%
Rainfall 0.25 in
Snow Depth Not available.
6:03 AM 8:24 PM
Waxing Crescent, 10% visible
METAR KFOZ 290351Z AUTO 00000KT 10SM CLR M02/M04 A3015 RMK AO2
Pressure 30.15 in
Visibility 10.0 miles
Clouds Clear
Windchill 34 °F
Dew Point 29 °F
Humidity 79%
Rainfall 0.25 in
Snow Depth Not available.
6:03 AM 8:24 PM
Waxing Crescent, 10% visible
METAR KFOZ 290351Z AUTO 00000KT 10SM CLR M02/M04 A3015 RMK AO2

Get Severe Weather Alerts

Thanks for signing up!

Be on the lookout for a verification email in your inbox.

You'll start receiving the daily forecast at 8 AM.

×

10-Day Weather Forecast

Almanac

Astronomy

Apr. 28, 2017 Rise Set
Actual Time
Civil Twilight
Nautical Twilight
Astronomical Twilight
Moon
Length of Visible Light
Length of Day
Tomorrow will be .
, % of the Moon is Illuminated

Today's Extremes

State Highs State Lows

Community

WunderPhotos

WunderBlog® & News

Nearby

Air Quality

  Air Quality AQ Index Pollutant
Not available.

Snow Depth

Station Depth Elevation

Earthquake Activity

City Distance Mag. Time & Date
Minimum magnitude displayed is 2.5.

Coastal Water Temperatures

Place Temperature

Stations

Nearby Weather Stations

Station Location Temp. Windchill Dew Point Humidity Wind Precip. Elev Updated Type
                   

Watches & Warnings

There are currently no watches in effect.